createdAt,value
2023-02-14T00:02:13.453Z,3.80
2023-02-14T00:04:44.169Z,4.47
2023-02-14T00:07:11.574Z,3.97
2023-02-14T00:09:38.838Z,4.43
2023-02-14T00:12:06.258Z,5.32
2023-02-14T00:14:52.337Z,4.70
2023-02-14T00:17:19.286Z,5.47
2023-02-14T00:19:46.562Z,4.93
2023-02-14T00:22:13.828Z,5.05
2023-02-14T00:24:41.134Z,4.70
2023-02-14T00:27:08.366Z,5.15
2023-02-14T00:29:35.692Z,5.40
2023-02-14T00:32:03.109Z,4.93
2023-02-14T00:34:30.382Z,3.58
2023-02-14T00:37:00.392Z,5.07
2023-02-14T00:39:27.626Z,5.00
2023-02-14T00:41:54.637Z,4.93
2023-02-14T00:44:21.989Z,4.25
2023-02-14T00:46:49.271Z,4.82
2023-02-14T00:49:16.519Z,4.90
2023-02-14T00:51:43.803Z,5.07
2023-02-14T00:54:11.113Z,4.28
2023-02-14T00:56:38.068Z,4.47
2023-02-14T00:59:05.321Z,5.15
2023-02-14T01:01:32.596Z,5.15
2023-02-14T01:03:59.995Z,5.07
2023-02-14T01:06:27.349Z,4.55
2023-02-14T01:08:54.576Z,4.15
2023-02-14T01:11:23.899Z,4.70
2023-02-14T01:13:55.791Z,4.90
2023-02-14T01:16:25.924Z,4.50
2023-02-14T01:18:55.563Z,5.18
2023-02-14T01:21:28.238Z,4.60
2023-02-14T01:23:58.096Z,5.95
2023-02-14T01:26:26.123Z,5.03
2023-02-14T01:28:53.491Z,4.45
2023-02-14T01:31:23.475Z,4.50
2023-02-14T01:33:51.402Z,5.10
2023-02-14T01:36:21.527Z,4.97
2023-02-14T01:38:51.877Z,4.68
2023-02-14T01:41:19.204Z,5.10
2023-02-14T01:43:59.961Z,4.78
2023-02-14T01:46:29.241Z,5.00
2023-02-14T01:49:09.206Z,4.25
2023-02-14T01:51:38.468Z,5.45
2023-02-14T01:54:09.129Z,4.95
2023-02-14T01:56:40.972Z,4.82
2023-02-14T01:59:13.163Z,4.65
2023-02-14T02:01:43.461Z,5.10
2023-02-14T02:04:17.584Z,5.20
2023-02-14T02:06:49.672Z,4.72
2023-02-14T02:09:54.785Z,4.82
2023-02-14T02:12:24.095Z,4.85
2023-02-14T02:14:54.259Z,4.47
2023-02-14T02:17:21.561Z,4.97
2023-02-14T02:20:25.441Z,4.90
2023-02-14T02:23:13.973Z,4.43
2023-02-14T02:25:57.367Z,4.80
2023-02-14T02:28:43.127Z,5.60
2023-02-14T02:31:34.929Z,5.50
2023-02-14T02:34:19.709Z,5.28
2023-02-14T02:37:18.552Z,3.97
2023-02-14T02:40:07.797Z,5.13
2023-02-14T02:42:55.847Z,5.63
2023-02-14T02:45:23.078Z,5.15
2023-02-14T02:48:14.358Z,5.32
2023-02-14T02:51:12.250Z,5.55
2023-02-14T02:53:54.328Z,5.38
2023-02-14T02:56:45.820Z,5.15
2023-02-14T02:59:18.464Z,4.78
2023-02-14T03:02:13.039Z,5.82
2023-02-14T03:04:53.298Z,5.32
2023-02-14T03:07:36.733Z,5.28
2023-02-14T03:10:18.056Z,5.57
2023-02-14T03:13:03.549Z,5.88
2023-02-14T03:15:51.559Z,5.70
2023-02-14T03:18:58.112Z,5.85
2023-02-14T03:21:38.639Z,5.85
2023-02-14T03:24:30.583Z,6.18
2023-02-14T03:27:42.917Z,5.97
2023-02-14T03:30:28.097Z,5.75
2023-02-14T03:33:20.689Z,6.35
2023-02-14T03:36:16.385Z,6.05
2023-02-14T03:39:05.212Z,6.90
2023-02-14T03:41:41.799Z,7.95
2023-02-14T03:44:11.416Z,7.30
2023-02-14T03:46:44.381Z,5.47
2023-02-14T03:49:16.335Z,7.47
2023-02-14T03:51:48.178Z,5.93
2023-02-14T03:54:15.866Z,7.50
2023-02-14T03:56:50.147Z,7.65
2023-02-14T03:59:21.735Z,7.25
2023-02-14T04:01:53.712Z,6.72
2023-02-14T04:04:24.184Z,7.38
2023-02-14T04:06:51.174Z,8.13
2023-02-14T04:09:18.393Z,8.23
2023-02-14T04:11:46.732Z,7.50
2023-02-14T04:14:14.106Z,7.57
2023-02-14T04:16:59.742Z,7.32
2023-02-14T04:19:26.652Z,7.50
2023-02-14T04:21:54.092Z,7.50
2023-02-14T04:24:21.032Z,7.82
2023-02-14T04:26:54.548Z,7.80
2023-02-14T04:29:21.762Z,6.90
2023-02-14T04:31:49.056Z,7.28
2023-02-14T04:34:16.348Z,7.25
2023-02-14T04:36:43.569Z,7.75
2023-02-14T04:39:10.837Z,6.93
2023-02-14T04:41:38.093Z,7.13
2023-02-14T04:44:05.579Z,7.30
2023-02-14T04:46:32.956Z,7.93
2023-02-14T04:49:00.216Z,7.90
2023-02-14T04:51:27.747Z,8.90
2023-02-14T04:53:55.145Z,8.02
2023-02-14T04:56:22.423Z,8.20
2023-02-14T04:58:49.628Z,7.95
2023-02-14T05:01:16.537Z,7.80
2023-02-14T05:03:43.602Z,7.93
2023-02-14T05:06:10.825Z,8.35
2023-02-14T05:08:38.053Z,8.35
2023-02-14T05:11:05.466Z,8.00
2023-02-14T05:13:32.654Z,7.95
2023-02-14T05:15:59.986Z,7.43
2023-02-14T05:18:27.495Z,8.20
2023-02-14T05:20:55.393Z,7.97
2023-02-14T05:23:22.820Z,8.25
2023-02-14T05:25:51.842Z,7.53
2023-02-14T05:28:19.856Z,7.40
2023-02-14T05:30:47.095Z,8.60
2023-02-14T05:33:14.306Z,8.13
2023-02-14T05:35:41.582Z,8.85
2023-02-14T05:38:08.933Z,8.43
2023-02-14T05:40:36.156Z,9.05
2023-02-14T05:43:03.478Z,9.57
2023-02-14T05:45:31.078Z,9.20
2023-02-14T05:47:58.366Z,8.15
2023-02-14T05:50:25.576Z,9.10
2023-02-14T05:52:54.772Z,8.80
2023-02-14T05:55:21.827Z,9.05
2023-02-14T05:57:49.122Z,9.10
2023-02-14T06:00:16.588Z,9.82
2023-02-14T06:02:43.827Z,9.05
2023-02-14T06:05:10.619Z,8.95
2023-02-14T06:07:37.947Z,9.98
2023-02-14T06:10:05.312Z,9.07
2023-02-14T06:12:32.668Z,9.88
2023-02-14T06:14:59.907Z,8.43
2023-02-14T06:17:27.187Z,8.23
2023-02-14T06:19:54.375Z,8.43
2023-02-14T06:22:21.665Z,8.75
2023-02-14T06:24:48.889Z,8.35
2023-02-14T06:27:16.139Z,8.52
2023-02-14T06:29:43.512Z,8.25
2023-02-14T06:32:10.800Z,9.43
2023-02-14T06:34:39.885Z,7.88
2023-02-14T06:37:07.679Z,9.10
2023-02-14T06:39:35.040Z,9.25
2023-02-14T06:42:02.600Z,8.52
2023-02-14T06:44:29.908Z,8.43
2023-02-14T06:46:57.146Z,8.40
2023-02-14T06:49:24.377Z,7.72
2023-02-14T06:51:51.636Z,7.47
2023-02-14T06:54:18.989Z,8.65
2023-02-14T06:56:46.339Z,7.75
2023-02-14T06:59:13.599Z,8.00
2023-02-14T07:01:40.866Z,7.90
2023-02-14T07:04:08.142Z,8.80
2023-02-14T07:06:36.826Z,8.68
2023-02-14T07:09:04.202Z,8.02
2023-02-14T07:11:31.574Z,7.75
2023-02-14T07:13:58.835Z,8.02
2023-02-14T07:16:26.251Z,8.00
2023-02-14T07:18:53.518Z,8.27
2023-02-14T07:21:20.449Z,10.00
2023-02-14T07:23:50.002Z,10.07
2023-02-14T07:26:18.238Z,10.35
2023-02-14T07:28:51.796Z,10.18
2023-02-14T07:31:20.022Z,9.48
2023-02-14T07:33:46.971Z,10.60
2023-02-14T07:36:13.779Z,11.30
2023-02-14T07:38:41.021Z,10.60
2023-02-14T07:41:07.855Z,10.05
2023-02-14T07:43:35.171Z,11.23
2023-02-14T07:46:02.784Z,10.27
2023-02-14T07:48:32.475Z,11.85
2023-02-14T07:51:01.293Z,10.95
2023-02-14T07:53:28.763Z,11.00
2023-02-14T07:55:56.075Z,10.63
2023-02-14T07:58:23.325Z,10.15
2023-02-14T08:00:51.258Z,11.65
2023-02-14T08:03:18.446Z,12.23
2023-02-14T08:05:45.685Z,10.82
2023-02-14T08:08:12.913Z,11.48
2023-02-14T08:10:40.168Z,11.20
2023-02-14T08:13:07.441Z,12.18
2023-02-14T08:15:54.307Z,11.90
2023-02-14T08:18:27.164Z,10.98
2023-02-14T08:20:54.432Z,12.10
2023-02-14T08:23:22.050Z,12.60
2023-02-14T08:25:50.153Z,13.20
2023-02-14T08:28:17.970Z,11.77
2023-02-14T08:30:45.531Z,12.90
2023-02-14T08:33:12.963Z,13.38
2023-02-14T08:35:40.213Z,13.77
2023-02-14T08:38:07.590Z,13.10
2023-02-14T08:40:37.052Z,13.20
2023-02-14T08:43:08.260Z,12.27
2023-02-14T08:45:35.672Z,14.05
2023-02-14T08:48:08.250Z,12.85
2023-02-14T08:50:35.795Z,13.40
2023-02-14T08:53:11.214Z,13.13
2023-02-14T08:55:39.186Z,11.55
2023-02-14T08:58:07.272Z,11.93
2023-02-14T09:00:34.561Z,12.77
2023-02-14T09:03:01.919Z,11.10
2023-02-14T09:05:29.233Z,8.88
2023-02-14T09:07:57.159Z,10.57
2023-02-14T09:10:25.376Z,10.18
2023-02-14T09:12:52.854Z,9.55
2023-02-14T09:15:20.211Z,9.80
2023-02-14T09:17:47.607Z,10.32
2023-02-14T09:20:16.448Z,9.35
2023-02-14T09:22:44.031Z,10.43
2023-02-14T09:25:11.591Z,9.85
2023-02-14T09:27:38.895Z,10.88
2023-02-14T09:30:07.492Z,9.93
2023-02-14T09:32:34.775Z,9.18
2023-02-14T09:35:20.631Z,11.02
2023-02-14T09:38:06.460Z,10.25
2023-02-14T09:40:34.231Z,10.73
2023-02-14T09:43:02.061Z,11.00
2023-02-14T09:45:30.809Z,10.70
2023-02-14T09:48:02.451Z,12.15
2023-02-14T09:50:43.954Z,12.98
2023-02-14T09:53:24.328Z,10.70
2023-02-14T09:56:10.207Z,12.77
2023-02-14T09:59:17.396Z,11.57
2023-02-14T10:01:51.159Z,10.93
2023-02-14T10:04:32.255Z,12.38
2023-02-14T10:07:10.217Z,11.35
2023-02-14T10:10:34.576Z,11.93
2023-02-14T10:13:28.589Z,11.05
2023-02-14T10:16:03.629Z,11.70
2023-02-14T10:18:42.568Z,11.85
2023-02-14T10:21:16.138Z,11.07
2023-02-14T10:23:49.807Z,12.48
2023-02-14T10:26:36.844Z,11.55
2023-02-14T10:29:07.910Z,11.98
2023-02-14T10:31:58.623Z,12.27
2023-02-14T10:34:25.825Z,12.77
2023-02-14T10:37:27.863Z,12.07
2023-02-14T10:40:17.535Z,11.35
2023-02-14T10:42:58.511Z,12.93
2023-02-14T10:45:39.131Z,13.48
2023-02-14T10:48:27.053Z,12.85
2023-02-14T10:51:12.510Z,11.63
2023-02-14T10:54:17.285Z,13.23
2023-02-14T10:57:01.936Z,11.77
2023-02-14T10:59:56.100Z,12.57
2023-02-14T11:02:26.764Z,13.73
2023-02-14T11:04:54.689Z,13.10
2023-02-14T11:07:22.225Z,12.10
2023-02-14T11:09:49.701Z,14.50
2023-02-14T11:12:38.997Z,13.55
2023-02-14T11:15:10.175Z,12.63
2023-02-14T11:17:38.014Z,11.82
2023-02-14T11:20:24.598Z,13.23
2023-02-14T11:22:51.478Z,13.45
2023-02-14T11:25:21.821Z,11.98
2023-02-14T11:27:51.892Z,12.13
2023-02-14T11:30:33.705Z,10.65
2023-02-14T11:33:01.124Z,12.27
2023-02-14T11:35:34.533Z,12.25
2023-02-14T11:38:04.429Z,12.88
2023-02-14T11:40:35.385Z,12.57
2023-02-14T11:43:14.310Z,12.70
2023-02-14T11:45:44.464Z,11.00
2023-02-14T11:48:36.651Z,12.27
2023-02-14T11:51:09.931Z,11.48
2023-02-14T11:53:48.984Z,12.43
2023-02-14T11:56:17.793Z,11.20
2023-02-14T11:58:45.140Z,12.40
2023-02-14T12:01:25.892Z,11.43
2023-02-14T12:03:57.223Z,12.43
2023-02-14T12:06:26.670Z,12.55
2023-02-14T12:09:23.227Z,13.05
2023-02-14T12:12:03.051Z,10.90
2023-02-14T12:14:32.667Z,11.32
2023-02-14T12:17:31.577Z,13.15
2023-02-14T12:19:58.756Z,11.85
2023-02-14T12:22:52.072Z,11.98
2023-02-14T12:25:24.960Z,11.60
2023-02-14T12:28:04.102Z,11.18
2023-02-14T12:30:35.069Z,11.60
2023-02-14T12:33:02.534Z,12.02
2023-02-14T12:35:48.857Z,12.55
2023-02-14T12:38:31.048Z,13.07
2023-02-14T12:41:19.503Z,12.48
2023-02-14T12:43:48.040Z,12.43
2023-02-14T12:46:36.631Z,11.90
2023-02-14T12:49:30.677Z,10.38
2023-02-14T12:52:26.654Z,11.25
2023-02-14T12:55:11.939Z,11.90
2023-02-14T12:57:54.268Z,11.10
2023-02-14T13:00:53.580Z,11.40
2023-02-14T13:03:40.004Z,10.73
2023-02-14T13:06:27.888Z,11.30
2023-02-14T13:09:02.396Z,12.35
2023-02-14T13:11:39.817Z,11.30
2023-02-14T13:14:33.844Z,11.18
2023-02-14T13:17:11.130Z,10.07
2023-02-14T13:19:53.166Z,10.80
2023-02-14T13:22:23.837Z,11.38
2023-02-14T13:24:53.793Z,11.00
2023-02-14T13:27:24.842Z,10.45
2023-02-14T13:30:20.331Z,11.43
2023-02-14T13:32:50.303Z,10.02
2023-02-14T13:35:19.951Z,12.13
2023-02-14T13:37:53.478Z,12.02
2023-02-14T13:40:25.761Z,12.82
2023-02-14T13:42:55.933Z,11.68
2023-02-14T13:45:40.546Z,11.50
2023-02-14T13:48:12.745Z,10.38
2023-02-14T13:50:53.974Z,11.40
2023-02-14T13:53:38.372Z,11.75
2023-02-14T13:56:06.693Z,11.88
2023-02-14T13:58:34.406Z,10.88
2023-02-14T14:01:30.528Z,11.30
2023-02-14T14:04:05.884Z,10.53
2023-02-14T14:07:03.944Z,10.25
2023-02-14T14:09:43.252Z,11.05
2023-02-14T14:12:37.395Z,11.38
2023-02-14T14:15:07.292Z,11.23
2023-02-14T14:17:35.863Z,11.40
2023-02-14T14:20:16.205Z,10.68
2023-02-14T14:22:54.614Z,11.90
2023-02-14T14:25:39.753Z,10.70
2023-02-14T14:28:19.374Z,9.95
2023-02-14T14:30:46.658Z,10.25
2023-02-14T14:33:14.864Z,10.40
2023-02-14T14:35:53.731Z,11.45
2023-02-14T14:38:21.156Z,10.40
2023-02-14T14:40:49.081Z,10.98
2023-02-14T14:43:23.355Z,10.40
2023-02-14T14:45:52.860Z,10.93
2023-02-14T14:48:42.147Z,10.43
2023-02-14T14:51:34.646Z,9.82
2023-02-14T14:54:07.364Z,9.57
2023-02-14T14:56:47.066Z,9.73
2023-02-14T14:59:25.877Z,9.20
2023-02-14T15:01:54.406Z,9.95
2023-02-14T15:04:26.311Z,10.27
2023-02-14T15:06:55.456Z,10.45
2023-02-14T15:09:32.086Z,10.88
2023-02-14T15:12:20.385Z,10.15
2023-02-14T15:14:54.892Z,8.73
2023-02-14T15:17:22.742Z,9.63
2023-02-14T15:20:00.225Z,9.80
2023-02-14T15:22:35.597Z,9.73
2023-02-14T15:25:10.530Z,10.82
2023-02-14T15:27:40.850Z,9.57
2023-02-14T15:30:34.362Z,10.30
2023-02-14T15:33:07.103Z,9.73
2023-02-14T15:35:38.801Z,9.68
2023-02-14T15:38:09.575Z,10.27
2023-02-14T15:40:38.781Z,10.82
2023-02-14T15:43:32.098Z,10.68
2023-02-14T15:46:21.635Z,9.05
2023-02-14T15:48:48.604Z,10.25
2023-02-14T15:51:21.120Z,9.93
2023-02-14T15:53:54.873Z,9.90
2023-02-14T15:56:29.140Z,9.85
2023-02-14T15:59:05.405Z,10.38
2023-02-14T16:01:34.490Z,9.73
2023-02-14T16:04:04.558Z,10.43
2023-02-14T16:06:35.732Z,14.35
2023-02-14T16:09:03.328Z,15.25
2023-02-14T16:11:30.716Z,11.45
2023-02-14T16:13:57.904Z,13.07
2023-02-14T16:16:24.681Z,10.13
2023-02-14T16:18:53.750Z,10.70
2023-02-14T16:21:28.964Z,11.30
2023-02-14T16:24:10.667Z,7.18
2023-02-14T16:26:43.043Z,10.07
2023-02-14T16:29:13.058Z,10.05
2023-02-14T16:32:01.230Z,10.35
2023-02-14T16:34:32.952Z,10.38
2023-02-14T16:37:08.098Z,11.80
2023-02-14T16:39:35.392Z,10.37
2023-02-14T16:42:04.521Z,10.95
2023-02-14T16:44:31.797Z,11.52
2023-02-14T16:47:01.753Z,10.77
2023-02-14T16:49:28.537Z,10.75
2023-02-14T16:51:55.940Z,11.48
2023-02-14T16:54:25.792Z,10.80
2023-02-14T16:57:05.672Z,10.95
2023-02-14T16:59:33.118Z,11.13
2023-02-14T17:02:00.467Z,11.52
2023-02-14T17:04:27.741Z,10.68
2023-02-14T17:06:57.462Z,11.38
2023-02-14T17:09:29.746Z,10.40
2023-02-14T17:12:02.399Z,9.85
2023-02-14T17:14:33.982Z,9.75
2023-02-14T17:17:01.404Z,12.02
2023-02-14T17:19:28.703Z,11.45
2023-02-14T17:21:58.321Z,10.60
2023-02-14T17:24:25.538Z,11.18
2023-02-14T17:26:52.859Z,12.32
2023-02-14T17:29:20.430Z,11.95
2023-02-14T17:31:48.305Z,11.63
2023-02-14T17:34:15.607Z,11.98
2023-02-14T17:36:42.942Z,11.68
2023-02-14T17:39:10.183Z,10.27
2023-02-14T17:41:37.422Z,12.15
2023-02-14T17:44:06.989Z,11.35
2023-02-14T17:46:34.310Z,10.75
2023-02-14T17:49:04.249Z,9.75
2023-02-14T17:51:31.542Z,11.18
2023-02-14T17:53:59.098Z,10.73
2023-02-14T17:56:26.630Z,10.25
2023-02-14T17:58:55.192Z,10.88
2023-02-14T18:01:28.646Z,11.05
2023-02-14T18:03:55.990Z,10.63
2023-02-14T18:06:22.969Z,11.48
2023-02-14T18:08:53.091Z,10.98
2023-02-14T18:11:21.645Z,11.40
2023-02-14T18:13:49.698Z,11.20
2023-02-14T18:16:18.872Z,10.70
2023-02-14T18:18:46.611Z,12.18
2023-02-14T18:21:15.839Z,10.75
2023-02-14T18:23:43.099Z,11.82
2023-02-14T18:26:15.273Z,11.88
2023-02-14T18:28:42.512Z,11.45
2023-02-14T18:31:15.239Z,11.38
2023-02-14T18:33:42.858Z,10.70
2023-02-14T18:36:12.797Z,9.90
2023-02-14T18:38:40.950Z,10.05
2023-02-14T18:41:10.452Z,10.57
2023-02-14T18:43:37.905Z,10.88
2023-02-14T18:46:10.210Z,11.35
2023-02-14T18:48:37.664Z,10.90
2023-02-14T18:51:09.374Z,10.40
2023-02-14T18:53:37.681Z,10.82
2023-02-14T18:56:06.616Z,10.82
2023-02-14T18:58:34.796Z,10.55
2023-02-14T19:01:30.642Z,10.57
2023-02-14T19:04:02.221Z,10.57
2023-02-14T19:06:31.483Z,10.35
2023-02-14T19:08:59.228Z,10.25
2023-02-14T19:11:34.199Z,10.23
2023-02-14T19:14:02.362Z,8.70
2023-02-14T19:16:34.355Z,10.45
2023-02-14T19:19:02.689Z,11.73
2023-02-14T19:21:32.056Z,12.10
2023-02-14T19:23:59.553Z,13.30
2023-02-14T19:26:32.968Z,12.65
2023-02-14T19:29:03.083Z,11.65
2023-02-14T19:31:30.955Z,11.57
2023-02-14T19:33:57.860Z,13.45
2023-02-14T19:36:25.193Z,11.90
2023-02-14T19:38:53.754Z,11.85
2023-02-14T19:41:26.939Z,12.60
2023-02-14T19:43:57.275Z,10.93
2023-02-14T19:46:25.369Z,11.73
2023-02-14T19:48:52.671Z,11.30
2023-02-14T19:51:31.211Z,11.35
2023-02-14T19:54:00.730Z,11.57
2023-02-14T19:56:31.346Z,12.60
2023-02-14T19:58:59.006Z,10.93
2023-02-14T20:01:31.649Z,11.15
2023-02-14T20:03:59.138Z,12.57
2023-02-14T20:06:27.773Z,12.45
2023-02-14T20:08:55.055Z,12.23
2023-02-14T20:11:29.412Z,12.90
2023-02-14T20:13:56.904Z,12.70
2023-02-14T20:16:25.642Z,13.80
2023-02-14T20:18:52.984Z,13.82
2023-02-14T20:21:28.084Z,12.65
2023-02-14T20:24:06.424Z,17.15
2023-02-14T20:26:34.677Z,14.80
2023-02-14T20:29:06.461Z,13.70
2023-02-14T20:31:34.242Z,13.93
2023-02-14T20:34:01.573Z,12.50
2023-02-14T20:36:28.934Z,13.35
2023-02-14T20:39:01.061Z,12.63
2023-02-14T20:41:28.996Z,13.18
2023-02-14T20:44:03.334Z,11.40
2023-02-14T20:46:32.021Z,12.23
2023-02-14T20:48:59.529Z,12.02
2023-02-14T20:51:26.979Z,12.15
2023-02-14T20:53:54.360Z,12.70
2023-02-14T20:56:23.539Z,11.35
2023-02-14T20:58:51.100Z,11.60
2023-02-14T21:01:26.796Z,12.15
2023-02-14T21:03:54.322Z,10.80
2023-02-14T21:06:24.478Z,10.98
2023-02-14T21:08:51.890Z,11.90
2023-02-14T21:11:20.552Z,10.90
2023-02-14T21:13:47.810Z,8.57
2023-02-14T21:16:17.450Z,10.30
2023-02-14T21:18:48.641Z,9.23
2023-02-14T21:21:20.080Z,8.55
2023-02-14T21:23:52.199Z,8.63
2023-02-14T21:26:20.238Z,9.45
2023-02-14T21:28:47.827Z,10.48
2023-02-14T21:31:17.308Z,10.07
2023-02-14T21:33:44.659Z,9.90
2023-02-14T21:36:17.209Z,9.68
2023-02-14T21:38:44.440Z,9.07
2023-02-14T21:41:14.317Z,9.13
2023-02-14T21:43:43.551Z,8.80
2023-02-14T21:46:12.813Z,8.40
2023-02-14T21:48:58.933Z,8.70
2023-02-14T21:51:27.534Z,9.50
2023-02-14T21:53:55.261Z,9.00
2023-02-14T21:56:23.819Z,9.55
2023-02-14T21:58:52.411Z,8.70
2023-02-14T22:01:25.262Z,7.65
2023-02-14T22:03:52.808Z,8.15
2023-02-14T22:06:20.373Z,8.30
2023-02-14T22:08:47.650Z,8.45
2023-02-14T22:11:16.015Z,7.90
2023-02-14T22:13:43.422Z,7.97
2023-02-14T22:16:12.944Z,8.52
2023-02-14T22:18:40.129Z,8.10
2023-02-14T22:21:16.617Z,7.72
2023-02-14T22:23:44.158Z,8.13
2023-02-14T22:26:31.476Z,8.30
2023-02-14T22:29:00.937Z,8.50
2023-02-14T22:31:30.580Z,8.02
2023-02-14T22:33:57.902Z,8.32
2023-02-14T22:36:24.968Z,7.60
2023-02-14T22:38:52.259Z,7.80
2023-02-14T22:41:21.604Z,8.60
2023-02-14T22:43:48.987Z,7.78
2023-02-14T22:46:21.353Z,8.15
2023-02-14T22:48:49.632Z,8.65
2023-02-14T22:51:24.385Z,8.25
2023-02-14T22:53:53.256Z,8.93
2023-02-14T22:56:22.998Z,9.68
2023-02-14T22:58:54.231Z,8.45
2023-02-14T23:01:22.567Z,7.80
2023-02-14T23:03:56.133Z,7.78
2023-02-14T23:06:28.265Z,7.45
2023-02-14T23:08:55.783Z,8.43
2023-02-14T23:11:25.552Z,8.32
2023-02-14T23:14:11.628Z,8.95
2023-02-14T23:16:57.581Z,8.68
2023-02-14T23:19:48.634Z,6.38
2023-02-14T23:22:27.917Z,9.55
2023-02-14T23:24:59.679Z,9.48
2023-02-14T23:27:32.432Z,8.20
2023-02-14T23:29:59.831Z,8.73
2023-02-14T23:32:27.584Z,8.40
2023-02-14T23:34:54.893Z,8.82
2023-02-14T23:37:22.178Z,9.13
2023-02-14T23:39:49.747Z,8.52
2023-02-14T23:42:17.225Z,8.52
2023-02-14T23:44:44.875Z,8.25
2023-02-14T23:47:13.286Z,7.55
2023-02-14T23:49:40.842Z,8.00
2023-02-14T23:52:10.509Z,8.20
2023-02-14T23:54:37.947Z,8.75
2023-02-14T23:57:05.614Z,9.07
2023-02-14T23:59:32.849Z,9.25
